logo
Search for airport 
image banner adimage banner adimage banner ad
image banner ad

OLZ190 - Wujah Al Hajar Airbase

Located in Batroun, Lebanon

ICAO - , IATA -

Data provided by Airmate  

General information

Coordinates: N34°16'52" E35°40'48"
Elevation is 630 feet MSL.
Magnetic variation is 5° East
View others Airports in North Governorate

Operational data

Special qualification required
Current time UTC:
Current local time:
METAR: OLBA 270300Z 32003KT 290V360 8000 NSC 21/08 Q1008 NOSIG
TAF: TAF OLBA 262200Z 2700/2806 VRB02KT 8000 FEW030 BECMG 2706/2708 33015KT NSC BECMG 2718/2721 12005KT
View NOTAMs / SUP AIP / TFR affecting this airport [VIEW]
Communications frequencies: [VIEW]

Runways:

RWY identifierQFULength (ft)Width (ft)SurfaceLDA (ft)
0227°505097CONC
20207°505097CONC

Airport contact information

Address: Batroun Lebanon

Satellite view of OLZ190